< Typhoon 202118 2021 Season Typhoon 202120 >
Typhoon 202119 (NAMTHEUN)
General InformationTrack Information on Google MapsDetailed Wind InformationForecast History on Google MapsAccess Analytics MapList of All Images || NewsDisaster Info.WeblogTrackbackTyphoon FrontTwiphoonTyphoon Now!Typhoon ImaginationJMA Disaster Info. XMLResourceGoogle EarthGE AnimationAtom FeedGeoJSON
Detalied Best Track (Time Zone = UTC)
Year Month Day Hour Lat. Long. Pressure (hPa) Wind (kt) Class Image Chart
2021 10 8 18 16.6 166.0 1010 0 2 Image Chart
2021 10 9 00 16.8 164.6 1010 0 2 Image Chart
2021 10 9 06 16.7 163.4 1006 0 2 Image Chart
2021 10 9 12 16.9 162.1 1004 0 2 Image Chart
2021 10 9 18 16.9 161.0 1002 0 2 Image Chart
2021 10 10 00 17.0 160.4 1000 35 3 Image Chart
2021 10 10 06 17.1 159.9 998 40 3 Image Chart
2021 10 10 12 17.4 159.5 998 40 3 Image Chart
2021 10 10 18 17.7 158.8 998 40 3 Image Chart
2021 10 11 00 18.1 157.3 998 40 3 Image Chart
2021 10 11 06 18.6 156.0 998 40 3 Image Chart
2021 10 11 12 18.8 155.0 998 40 3 Image Chart
2021 10 11 18 19.2 153.8 998 40 3 Image Chart
2021 10 12 00 19.5 153.1 998 40 3 Image Chart
2021 10 12 06 19.6 152.1 998 40 3 Image Chart
2021 10 12 12 20.1 151.9 998 40 3 Image Chart
2021 10 12 18 20.9 151.9 998 40 3 Image Chart
2021 10 13 00 21.7 152.4 998 40 3 Image Chart
2021 10 13 06 22.4 152.9 998 40 3 Image Chart
2021 10 13 12 22.8 153.8 998 40 3 Image Chart
2021 10 13 18 23.4 155.0 998 40 3 Image Chart
2021 10 14 00 23.9 156.0 998 40 3 Image Chart
2021 10 14 06 24.3 157.4 998 40 3 Image Chart
2021 10 14 12 24.5 158.3 998 40 3 Image Chart
2021 10 14 18 25.2 159.3 998 40 3 Image Chart
2021 10 15 00 25.9 160.0 998 45 3 Image Chart
2021 10 15 06 26.5 160.7 998 45 3 Image Chart
2021 10 15 12 27.0 161.8 998 45 3 Image Chart
2021 10 15 18 28.0 162.8 998 45 3 Image Chart
2021 10 16 00 29.2 164.3 996 50 4 Image Chart
2021 10 16 06 30.7 165.1 996 50 4 Image Chart
2021 10 16 12 31.9 165.9 998 45 3 Image Chart
2021 10 16 18 32.7 166.6 1000 40 3 Image Chart
2021 10 17 00 33.7 167.2 1002 0 6 Image Chart
2021 10 17 06 35.0 167.3 1002 0 6 Image Chart
2021 10 17 12 36.1 167.0 1004 0 6 Image Chart
2021 10 17 18 38.0 167.4 1004 0 6 Image Chart
2021 10 18 00 39.8 168.4 1004 0 6 Image Chart
2021 10 18 06 41.7 171.0 1002 0 6 Image Chart
2021 10 18 12 43.3 174.5 1000 0 6 Image Chart
2021 10 18 18 44.5 179.6 1000 0 6 Image Chart
2021 10 19 00 45.2 183.7 1000 0 6 Image Chart
Japan Meteorological Agency Best Track Data | Correction Date : 2022-01-07
< Typhoon 202118 2021 Season Typhoon 202120 >

Help